createdAt,value
2016-12-03T00:00:36.961Z,19
2016-12-03T00:01:37.363Z,19.1
2016-12-03T00:02:37.750Z,19
2016-12-03T00:03:38.135Z,18.9
2016-12-03T00:04:38.523Z,18.8
2016-12-03T00:05:38.913Z,18.8
2016-12-03T00:06:39.315Z,18.8
2016-12-03T00:07:39.716Z,19
2016-12-03T00:08:40.105Z,18.9
2016-12-03T00:09:40.489Z,18.9
2016-12-03T00:10:40.889Z,19
2016-12-03T00:11:41.287Z,19
2016-12-03T00:12:41.690Z,19.1
2016-12-03T00:13:42.093Z,19
2016-12-03T00:14:42.474Z,19
2016-12-03T00:15:42.857Z,19
2016-12-03T00:16:43.247Z,18.9
2016-12-03T00:17:43.633Z,19
2016-12-03T00:18:44.042Z,18.9
2016-12-03T00:19:44.446Z,19
2016-12-03T00:20:44.854Z,18.9
2016-12-03T00:21:45.253Z,18.9
2016-12-03T00:22:45.637Z,18.9
2016-12-03T00:23:46.054Z,18.8
2016-12-03T00:24:46.446Z,18.9
2016-12-03T00:25:46.839Z,18.9
2016-12-03T00:26:47.248Z,18.9
2016-12-03T00:27:47.648Z,18.9
2016-12-03T00:28:48.044Z,18.9
2016-12-03T00:29:48.444Z,19
2016-12-03T00:30:48.833Z,19
2016-12-03T00:31:49.223Z,19
2016-12-03T00:32:49.608Z,19
2016-12-03T00:33:49.999Z,19
2016-12-03T00:34:50.404Z,18.9
2016-12-03T00:35:50.807Z,19
2016-12-03T00:36:51.213Z,18.9
2016-12-03T00:37:51.612Z,18.8
2016-12-03T00:38:51.995Z,18.9
2016-12-03T00:39:52.388Z,18.9
2016-12-03T00:40:52.786Z,18.9
2016-12-03T00:41:53.182Z,18.8
2016-12-03T00:42:53.576Z,18.7
2016-12-03T00:43:53.964Z,18.9
2016-12-03T00:44:54.359Z,18.8
2016-12-03T00:45:54.752Z,18.9
2016-12-03T00:46:55.153Z,18.9
2016-12-03T00:47:55.591Z,18.9
2016-12-03T00:48:55.993Z,19
2016-12-03T00:49:56.401Z,18.9
2016-12-03T00:50:56.786Z,18.9
2016-12-03T00:51:57.174Z,18.9
2016-12-03T00:52:57.568Z,18.9
2016-12-03T00:53:57.957Z,18.9
2016-12-03T00:54:58.367Z,18.9
2016-12-03T00:55:58.772Z,19
2016-12-03T00:56:59.165Z,19
2016-12-03T00:57:59.558Z,18.9
2016-12-03T00:58:59.951Z,18.9
2016-12-03T01:00:00.340Z,18.9
2016-12-03T01:01:00.731Z,18.9
2016-12-03T01:02:01.121Z,18.8
2016-12-03T01:03:01.513Z,18.8
2016-12-03T01:04:01.907Z,18.7
2016-12-03T01:05:02.315Z,18.7
2016-12-03T01:06:02.714Z,18.7
2016-12-03T01:07:03.097Z,18.7
2016-12-03T01:08:03.481Z,18.8
2016-12-03T01:09:03.867Z,18.9
2016-12-03T01:10:04.255Z,19
2016-12-03T01:11:05.015Z,19
2016-12-03T01:12:05.418Z,18.9
2016-12-03T01:13:05.808Z,18.8
2016-12-03T01:14:06.198Z,18.9
2016-12-03T01:15:06.602Z,18.9
2016-12-03T01:16:07.011Z,18.9
2016-12-03T01:17:07.408Z,18.9
2016-12-03T01:18:07.801Z,18.9
2016-12-03T01:19:08.197Z,18.9
2016-12-03T01:20:08.587Z,18.9
2016-12-03T01:21:08.978Z,18.9
2016-12-03T01:22:09.369Z,18.9
2016-12-03T01:23:09.766Z,18.9
2016-12-03T01:24:10.166Z,18.9
2016-12-03T01:25:10.572Z,18.8
2016-12-03T01:26:10.972Z,18.9
2016-12-03T01:27:11.361Z,19
2016-12-03T01:28:11.753Z,18.8
2016-12-03T01:29:12.141Z,18.9
2016-12-03T01:30:12.521Z,18.9
2016-12-03T01:31:12.920Z,18.9
2016-12-03T01:32:13.323Z,19
2016-12-03T01:33:13.715Z,18.9
2016-12-03T01:34:14.126Z,18.9
2016-12-03T01:35:14.516Z,18.9
2016-12-03T01:36:14.909Z,18.9
2016-12-03T01:37:15.638Z,18.9
2016-12-03T01:38:16.025Z,18.8
2016-12-03T01:39:16.429Z,18.9
2016-12-03T01:40:16.822Z,18.9
2016-12-03T01:41:17.224Z,18.9
2016-12-03T01:42:17.628Z,18.7
2016-12-03T01:43:18.016Z,18.9
2016-12-03T01:44:18.401Z,18.9
2016-12-03T01:45:18.805Z,18.9
2016-12-03T01:46:19.196Z,19
2016-12-03T01:47:19.582Z,18.9
2016-12-03T01:48:19.974Z,18.9
2016-12-03T01:49:20.362Z,18.9
2016-12-03T01:50:20.757Z,19
2016-12-03T01:51:21.165Z,18.8
2016-12-03T01:52:21.556Z,18.9
2016-12-03T01:53:21.955Z,18.9
2016-12-03T01:54:22.362Z,18.9
2016-12-03T01:55:22.760Z,18.8
2016-12-03T01:56:23.146Z,18.8
2016-12-03T01:57:23.530Z,18.8
2016-12-03T01:58:23.915Z,18.8
2016-12-03T01:59:24.312Z,18.8
2016-12-03T02:00:24.714Z,18.9
2016-12-03T02:01:25.114Z,18.9
2016-12-03T02:02:25.510Z,18.9
2016-12-03T02:03:25.900Z,18.9
2016-12-03T02:04:26.288Z,18.9
2016-12-03T02:05:26.677Z,18.9
2016-12-03T02:06:27.076Z,18.9
2016-12-03T02:07:27.479Z,18.9
2016-12-03T02:08:27.890Z,18.9
2016-12-03T02:09:28.285Z,18.7
2016-12-03T02:10:28.696Z,18.8
2016-12-03T02:11:29.084Z,18.9
2016-12-03T02:12:29.471Z,18.8
2016-12-03T02:13:29.863Z,18.7
2016-12-03T02:14:30.255Z,18.7
2016-12-03T02:15:30.653Z,18.7
2016-12-03T02:16:31.059Z,18.9
2016-12-03T02:17:31.454Z,18.9
2016-12-03T02:18:31.843Z,18.8
2016-12-03T02:19:32.237Z,19
2016-12-03T02:20:32.635Z,18.9
2016-12-03T02:21:33.031Z,18.9
2016-12-03T02:22:33.424Z,18.9
2016-12-03T02:23:33.816Z,18.9
2016-12-03T02:24:34.208Z,18.9
2016-12-03T02:25:34.594Z,18.8
2016-12-03T02:26:34.979Z,18.8
2016-12-03T02:27:35.386Z,18.8
2016-12-03T02:28:35.793Z,18.7
2016-12-03T02:29:36.195Z,18.7
2016-12-03T02:30:36.594Z,18.9
2016-12-03T02:31:36.975Z,18.8
2016-12-03T02:32:37.361Z,18.9
2016-12-03T02:33:37.745Z,18.8
2016-12-03T02:34:38.134Z,18.9
2016-12-03T02:35:38.536Z,18.9
2016-12-03T02:36:38.935Z,18.7
2016-12-03T02:37:39.334Z,18.7
2016-12-03T02:38:39.741Z,18.7
2016-12-03T02:39:40.131Z,18.8
2016-12-03T02:40:40.522Z,18.8
2016-12-03T02:41:40.900Z,18.9
2016-12-03T02:42:41.287Z,18.8
2016-12-03T02:43:41.694Z,18.9
2016-12-03T02:44:42.101Z,18.8
2016-12-03T02:45:42.499Z,18.9
2016-12-03T02:46:42.902Z,18.8
2016-12-03T02:47:43.280Z,18.9
2016-12-03T02:48:43.667Z,18.8
2016-12-03T02:49:44.063Z,18.8
2016-12-03T02:50:44.460Z,18.7
2016-12-03T02:51:44.850Z,18.7
2016-12-03T02:52:45.239Z,18.7
2016-12-03T02:53:45.632Z,18.7
2016-12-03T02:54:46.016Z,18.7
2016-12-03T02:55:46.412Z,18.8
2016-12-03T02:56:46.808Z,18.8
2016-12-03T02:57:47.208Z,18.9
2016-12-03T02:58:47.609Z,18.9
2016-12-03T02:59:48.021Z,18.8
2016-12-03T03:00:48.409Z,18.9
2016-12-03T03:01:48.789Z,18.8
2016-12-03T03:02:49.180Z,18.8
2016-12-03T03:03:49.580Z,18.7
2016-12-03T03:04:49.978Z,18.8
2016-12-03T03:05:50.378Z,18.7
2016-12-03T03:06:50.781Z,18.7
2016-12-03T03:07:51.172Z,18.8
2016-12-03T03:08:51.562Z,18.8
2016-12-03T03:09:51.954Z,18.7
2016-12-03T03:10:52.339Z,18.7
2016-12-03T03:11:52.748Z,18.8
2016-12-03T03:12:53.147Z,18.7
2016-12-03T03:13:53.550Z,18.7
2016-12-03T03:14:53.949Z,18.8
2016-12-03T03:15:54.334Z,18.9
2016-12-03T03:16:54.723Z,18.9
2016-12-03T03:17:55.107Z,18.9
2016-12-03T03:18:55.499Z,18.9
2016-12-03T03:19:55.905Z,18.7
2016-12-03T03:20:56.306Z,18.9
2016-12-03T03:21:56.703Z,18.7
2016-12-03T03:22:57.104Z,18.8
2016-12-03T03:23:57.490Z,18.8
2016-12-03T03:24:57.883Z,18.8
2016-12-03T03:25:58.274Z,18.7
2016-12-03T03:26:58.662Z,18.7
2016-12-03T03:27:59.088Z,18.7
2016-12-03T03:28:59.485Z,18.7
2016-12-03T03:29:59.884Z,18.7
2016-12-03T03:31:00.285Z,18.8
2016-12-03T03:32:00.674Z,18.9
2016-12-03T03:33:01.062Z,18.9
2016-12-03T03:34:01.449Z,18.7
2016-12-03T03:35:01.835Z,18.9
2016-12-03T03:36:02.234Z,18.8
2016-12-03T03:37:02.637Z,18.8
2016-12-03T03:38:03.037Z,18.7
2016-12-03T03:39:03.430Z,18.7
2016-12-03T03:40:03.818Z,18.7
2016-12-03T03:41:04.206Z,18.7
2016-12-03T03:42:04.599Z,18.7
2016-12-03T03:43:04.999Z,18.7
2016-12-03T03:44:05.400Z,18.6
2016-12-03T03:45:05.796Z,18.7
2016-12-03T03:46:06.200Z,18.7
2016-12-03T03:47:06.600Z,18.6
2016-12-03T03:48:06.986Z,18.7
2016-12-03T03:49:07.377Z,18.7
2016-12-03T03:50:07.765Z,18.7
2016-12-03T03:51:08.153Z,18.7
2016-12-03T03:52:08.552Z,18.7
2016-12-03T03:53:08.952Z,18.7
2016-12-03T03:54:09.348Z,18.8
2016-12-03T03:55:09.739Z,18.7
2016-12-03T03:56:10.139Z,18.7
2016-12-03T03:57:10.533Z,18.7
2016-12-03T03:58:10.930Z,18.7
2016-12-03T03:59:11.321Z,18.9
2016-12-03T04:00:11.704Z,18.9
2016-12-03T04:01:12.093Z,18.7
2016-12-03T04:02:12.506Z,18.6
2016-12-03T04:03:12.893Z,18.8
2016-12-03T04:04:13.297Z,18.6
2016-12-03T04:05:13.702Z,18.6
2016-12-03T04:06:14.104Z,18.6
2016-12-03T04:07:14.509Z,18.6
2016-12-03T04:08:14.900Z,18.6
2016-12-03T04:09:15.280Z,18.7
2016-12-03T04:10:15.664Z,18.7
2016-12-03T04:11:16.060Z,18.9
2016-12-03T04:12:16.463Z,18.8
2016-12-03T04:13:16.863Z,18.8
2016-12-03T04:14:17.265Z,18.8
2016-12-03T04:15:17.662Z,18.9
2016-12-03T04:16:18.049Z,18.8
2016-12-03T04:17:18.445Z,18.9
2016-12-03T04:18:19.164Z,18.9
2016-12-03T04:19:19.551Z,18.9
2016-12-03T04:20:19.949Z,18.7
2016-12-03T04:21:20.349Z,18.7
2016-12-03T04:22:20.755Z,18.8
2016-12-03T04:23:21.148Z,18.9
2016-12-03T04:24:21.535Z,18.9
2016-12-03T04:25:21.918Z,19
2016-12-03T04:26:22.311Z,18.9
2016-12-03T04:27:22.707Z,19
2016-12-03T04:28:23.103Z,18.9
2016-12-03T04:29:23.493Z,18.8
2016-12-03T04:30:23.883Z,18.9
2016-12-03T04:31:24.271Z,18.9
2016-12-03T04:32:24.661Z,19
2016-12-03T04:33:25.056Z,18.8
2016-12-03T04:34:25.456Z,18.8
2016-12-03T04:35:25.858Z,18.8
2016-12-03T04:36:26.236Z,18.9
2016-12-03T04:37:26.620Z,18.8
2016-12-03T04:38:27.006Z,18.9
2016-12-03T04:39:27.396Z,18.9
2016-12-03T04:40:27.808Z,19
2016-12-03T04:41:28.213Z,18.9
2016-12-03T04:42:28.613Z,19
2016-12-03T04:43:29.110Z,19
2016-12-03T04:44:29.497Z,19
2016-12-03T04:45:29.890Z,18.9
2016-12-03T04:46:30.279Z,18.9
2016-12-03T04:47:30.676Z,18.9
2016-12-03T04:48:31.080Z,18.8
2016-12-03T04:49:31.491Z,18.9
2016-12-03T04:50:31.898Z,18.7
2016-12-03T04:51:32.304Z,18.7
2016-12-03T04:52:32.697Z,18.8
2016-12-03T04:53:33.088Z,18.8
2016-12-03T04:54:33.475Z,18.9
2016-12-03T04:55:33.861Z,18.9
2016-12-03T04:56:34.261Z,18.9
2016-12-03T04:57:34.663Z,18.9
2016-12-03T04:58:35.052Z,19
2016-12-03T04:59:35.439Z,19
2016-12-03T05:00:35.837Z,19
2016-12-03T05:01:36.241Z,19
2016-12-03T05:02:36.635Z,19
2016-12-03T05:03:37.037Z,18.9
2016-12-03T05:04:37.424Z,19
2016-12-03T05:05:37.808Z,18.9
2016-12-03T05:06:38.190Z,18.9
2016-12-03T05:07:38.577Z,18.9
2016-12-03T05:08:38.976Z,18.8
2016-12-03T05:09:39.409Z,18.8
2016-12-03T05:10:39.814Z,18.8
2016-12-03T05:11:40.209Z,18.9
2016-12-03T05:12:40.594Z,18.9
2016-12-03T05:13:41.092Z,18.9
2016-12-03T05:14:41.482Z,18.9
2016-12-03T05:15:41.872Z,18.9
2016-12-03T05:16:42.276Z,19
2016-12-03T05:17:42.689Z,18.9
2016-12-03T05:18:43.084Z,19
2016-12-03T05:19:43.484Z,19
2016-12-03T05:20:43.871Z,18.8
2016-12-03T05:21:44.256Z,18.8
2016-12-03T05:22:44.647Z,18.8
2016-12-03T05:23:45.038Z,18.9
2016-12-03T05:24:45.440Z,18.8
2016-12-03T05:25:45.836Z,18.7
2016-12-03T05:26:46.237Z,18.9
2016-12-03T05:27:46.632Z,18.9
2016-12-03T05:28:47.019Z,18.9
2016-12-03T05:29:47.409Z,18.9
2016-12-03T05:30:47.804Z,18.9
2016-12-03T05:31:48.209Z,19
2016-12-03T05:32:48.593Z,18.9
2016-12-03T05:33:48.982Z,18.9
2016-12-03T05:34:49.404Z,19
2016-12-03T05:35:49.791Z,18.9
2016-12-03T05:36:50.188Z,18.9
2016-12-03T05:37:50.585Z,18.9
2016-12-03T05:38:50.987Z,18.9
2016-12-03T05:39:51.731Z,18.7
2016-12-03T05:40:52.115Z,18.7
2016-12-03T05:41:52.508Z,18.8
2016-12-03T05:42:52.900Z,18.8
2016-12-03T05:43:53.283Z,18.9
2016-12-03T05:44:53.684Z,18.9
2016-12-03T05:45:54.078Z,18.9
2016-12-03T05:46:54.478Z,19
2016-12-03T05:47:54.878Z,19
2016-12-03T05:48:55.266Z,19.2
2016-12-03T05:49:55.649Z,19.3
2016-12-03T05:50:56.036Z,19.2
2016-12-03T05:51:56.421Z,19.3
2016-12-03T05:52:56.821Z,19.3
2016-12-03T05:53:57.219Z,19.2
2016-12-03T05:54:57.620Z,19.2
2016-12-03T05:55:58.019Z,19.3
2016-12-03T05:56:58.409Z,19.2
2016-12-03T05:57:58.802Z,19.3
2016-12-03T05:58:59.191Z,19.3
2016-12-03T05:59:59.580Z,19.3
2016-12-03T06:00:59.981Z,19.3
2016-12-03T06:02:00.377Z,19.4
2016-12-03T06:03:00.766Z,19.4
2016-12-03T06:04:01.150Z,19.4
2016-12-03T06:05:01.548Z,19.4
2016-12-03T06:06:01.952Z,19.4
2016-12-03T06:07:02.349Z,19.4
2016-12-03T06:08:02.747Z,19.4
2016-12-03T06:09:03.138Z,19.3
2016-12-03T06:10:03.537Z,19.3
2016-12-03T06:11:03.921Z,19.4
2016-12-03T06:12:04.316Z,19.3
2016-12-03T06:13:04.722Z,19.3
2016-12-03T06:14:05.226Z,19.4
2016-12-03T06:15:05.628Z,19.4
2016-12-03T06:16:06.021Z,19.4
2016-12-03T06:17:06.408Z,19.5
2016-12-03T06:18:06.795Z,19.5
2016-12-03T06:19:07.185Z,19.6
2016-12-03T06:20:07.565Z,19.4
2016-12-03T06:21:07.962Z,19.4
2016-12-03T06:22:08.367Z,19.4
2016-12-03T06:23:08.766Z,19.4
2016-12-03T06:24:09.172Z,19.4
2016-12-03T06:25:09.899Z,19.5
2016-12-03T06:26:10.283Z,19.4
2016-12-03T06:27:10.673Z,19.4
2016-12-03T06:28:11.067Z,19.4
2016-12-03T06:29:11.464Z,19.6
2016-12-03T06:30:11.854Z,19.5
2016-12-03T06:31:12.254Z,19.4
2016-12-03T06:32:12.646Z,19.4
2016-12-03T06:33:13.035Z,19.4
2016-12-03T06:34:13.431Z,19.4
2016-12-03T06:35:13.829Z,19.4
2016-12-03T06:36:14.229Z,19.4
2016-12-03T06:37:14.614Z,19.6
2016-12-03T06:38:14.998Z,19.6
2016-12-03T06:39:15.385Z,19.6
2016-12-03T06:40:15.776Z,19.5
2016-12-03T06:41:16.182Z,19.5
2016-12-03T06:42:16.585Z,19.5
2016-12-03T06:43:16.975Z,19.4
2016-12-03T06:44:17.471Z,19.5
2016-12-03T06:45:17.860Z,19.4
2016-12-03T06:46:18.252Z,19.4
2016-12-03T06:47:18.639Z,19.4
2016-12-03T06:48:19.029Z,19.4
2016-12-03T06:49:19.431Z,19.5
2016-12-03T06:50:19.834Z,19.5
2016-12-03T06:51:20.236Z,19.5
2016-12-03T06:52:20.638Z,19.5
2016-12-03T06:53:21.019Z,19.6
2016-12-03T06:54:21.404Z,19.5
2016-12-03T06:55:21.791Z,19.5
2016-12-03T06:56:22.175Z,19.5
2016-12-03T06:57:22.589Z,19.6
2016-12-03T06:58:22.990Z,19.7
2016-12-03T06:59:23.385Z,19.6
2016-12-03T07:00:23.780Z,19.6
2016-12-03T07:01:24.171Z,19.6
2016-12-03T07:02:24.561Z,19.6
2016-12-03T07:03:24.950Z,19.7
2016-12-03T07:04:25.341Z,19.6
2016-12-03T07:05:25.739Z,19.7
2016-12-03T07:06:26.145Z,19.8
2016-12-03T07:07:26.537Z,19.8
2016-12-03T07:08:26.932Z,19.6
2016-12-03T07:09:27.332Z,19.7
2016-12-03T07:10:27.732Z,19.7
2016-12-03T07:11:28.139Z,19.6
2016-12-03T07:12:28.538Z,19.6
2016-12-03T07:13:28.922Z,19.7
2016-12-03T07:14:29.417Z,19.7
2016-12-03T07:15:29.808Z,19.7
2016-12-03T07:16:30.199Z,19.6
2016-12-03T07:17:30.603Z,19.4
2016-12-03T07:18:31.006Z,19.3
2016-12-03T07:19:31.494Z,19.4
2016-12-03T07:20:31.987Z,19.4
2016-12-03T07:21:32.378Z,19.4
2016-12-03T07:22:32.765Z,19.4
2016-12-03T07:23:33.153Z,19.3
2016-12-03T07:24:33.544Z,19.4
2016-12-03T07:25:33.947Z,19.4
2016-12-03T07:26:34.351Z,19.4
2016-12-03T07:27:34.758Z,19.4
2016-12-03T07:28:35.159Z,19.4
2016-12-03T07:29:35.546Z,19.3
2016-12-03T07:30:35.935Z,19.2
2016-12-03T07:31:36.329Z,19.2
2016-12-03T07:32:36.724Z,19.2
2016-12-03T07:33:37.122Z,19.1
2016-12-03T07:34:37.523Z,19
2016-12-03T07:35:37.918Z,19.1
2016-12-03T07:36:38.315Z,19
2016-12-03T07:37:38.712Z,19
2016-12-03T07:38:39.099Z,19
2016-12-03T07:39:39.482Z,18.9
2016-12-03T07:40:39.876Z,19
2016-12-03T07:41:40.282Z,19
2016-12-03T07:42:40.685Z,19.1
2016-12-03T07:43:41.084Z,19.1
2016-12-03T07:44:41.589Z,19.1
2016-12-03T07:45:41.980Z,19.1
2016-12-03T07:46:42.373Z,19.2
2016-12-03T07:47:42.763Z,19.2
2016-12-03T07:48:43.149Z,19.2
2016-12-03T07:49:43.551Z,19.3
2016-12-03T07:50:43.957Z,19.3
2016-12-03T07:51:44.356Z,19.3
2016-12-03T07:52:44.789Z,19.2
2016-12-03T07:53:45.186Z,19.2
2016-12-03T07:54:45.572Z,19.3
2016-12-03T07:55:45.957Z,19.4
2016-12-03T07:56:46.344Z,19.3
2016-12-03T07:57:46.741Z,19.4
2016-12-03T07:58:47.135Z,19.4
2016-12-03T07:59:47.531Z,19.5
2016-12-03T08:00:47.934Z,19.4
2016-12-03T08:01:48.326Z,19.5
2016-12-03T08:02:48.714Z,19.4
2016-12-03T08:03:49.125Z,19.4
2016-12-03T08:04:49.520Z,19.4
2016-12-03T08:05:49.920Z,19.3
2016-12-03T08:06:50.321Z,19.3
2016-12-03T08:07:50.727Z,19.4
2016-12-03T08:08:51.127Z,19.4
2016-12-03T08:09:51.517Z,19.3
2016-12-03T08:10:51.907Z,19.4
2016-12-03T08:11:52.308Z,19.4
2016-12-03T08:12:52.701Z,19.3
2016-12-03T08:13:53.091Z,19.4
2016-12-03T08:14:53.579Z,19.4
2016-12-03T08:15:53.966Z,19.3
2016-12-03T08:16:54.355Z,19.4
2016-12-03T08:17:54.747Z,19.3
2016-12-03T08:18:55.150Z,19.4
2016-12-03T08:19:55.551Z,19.4
2016-12-03T08:20:55.952Z,19.5
2016-12-03T08:21:56.339Z,19.4
2016-12-03T08:22:56.731Z,19.4
2016-12-03T08:23:57.113Z,19.4
2016-12-03T08:24:57.500Z,19.4
2016-12-03T08:25:57.900Z,19.4
2016-12-03T08:26:58.297Z,19.4
2016-12-03T08:27:58.693Z,19.4
2016-12-03T08:28:59.100Z,19.5
2016-12-03T08:29:59.495Z,19.5
2016-12-03T08:30:59.885Z,19.5
2016-12-03T08:32:00.271Z,19.4
2016-12-03T08:33:00.652Z,19.5
2016-12-03T08:34:01.052Z,19.5
2016-12-03T08:35:01.488Z,19.6
2016-12-03T08:36:02.226Z,19.5
2016-12-03T08:37:02.620Z,19.4
2016-12-03T08:38:03.009Z,19.4
2016-12-03T08:39:03.403Z,19.4
2016-12-03T08:40:03.792Z,19.4
2016-12-03T08:41:04.190Z,19.6
2016-12-03T08:42:04.594Z,19.5
2016-12-03T08:43:04.988Z,19.6
2016-12-03T08:44:05.368Z,19.5
2016-12-03T08:45:05.855Z,19.5
2016-12-03T08:46:06.263Z,19.5
2016-12-03T08:47:06.663Z,19.5
2016-12-03T08:48:07.059Z,19.4
2016-12-03T08:49:07.462Z,19.5
2016-12-03T08:50:07.843Z,19.6
2016-12-03T08:51:08.230Z,19.5
2016-12-03T08:52:08.624Z,19.4
2016-12-03T08:53:09.015Z,19.6
2016-12-03T08:54:09.414Z,19.5
2016-12-03T08:55:09.810Z,19.5
2016-12-03T08:56:10.211Z,19.4
2016-12-03T08:57:10.605Z,19.6
2016-12-03T08:58:10.991Z,19.6
2016-12-03T08:59:11.380Z,19.6
2016-12-03T09:00:11.762Z,19.6
2016-12-03T09:01:12.148Z,19.5
2016-12-03T09:02:12.561Z,19.6
2016-12-03T09:03:12.963Z,19.6
2016-12-03T09:04:13.365Z,19.6
2016-12-03T09:05:13.769Z,19.6
2016-12-03T09:06:14.149Z,19.6
2016-12-03T09:07:14.536Z,19.5
2016-12-03T09:08:14.929Z,19.5
2016-12-03T09:09:15.319Z,19.5
2016-12-03T09:10:15.716Z,19.6
2016-12-03T09:11:16.113Z,19.6
2016-12-03T09:12:16.511Z,19.6
2016-12-03T09:13:16.909Z,19.6
2016-12-03T09:14:17.302Z,19.6
2016-12-03T09:15:17.790Z,19.5
2016-12-03T09:16:18.186Z,19.5
2016-12-03T09:17:18.582Z,19.7
2016-12-03T09:18:18.966Z,19.7
2016-12-03T09:19:19.354Z,19.8
2016-12-03T09:20:19.736Z,19.6
2016-12-03T09:21:20.125Z,19.7
2016-12-03T09:22:20.525Z,19.8
2016-12-03T09:23:20.928Z,19.7
2016-12-03T09:24:21.322Z,19.8
2016-12-03T09:25:21.722Z,19.8
2016-12-03T09:26:22.110Z,19.9
2016-12-03T09:27:22.496Z,19.9
2016-12-03T09:28:22.888Z,19.9
2016-12-03T09:29:23.277Z,19.9
2016-12-03T09:30:23.689Z,19.8
2016-12-03T09:31:24.091Z,19.8
2016-12-03T09:32:24.500Z,19.8
2016-12-03T09:33:24.907Z,19.8
2016-12-03T09:34:25.293Z,19.8
2016-12-03T09:35:25.682Z,19.7
2016-12-03T09:36:26.065Z,19.8
2016-12-03T09:37:26.454Z,19.8
2016-12-03T09:38:26.854Z,19.8
2016-12-03T09:39:27.254Z,19.8
2016-12-03T09:40:27.680Z,19.8
2016-12-03T09:41:28.083Z,20
2016-12-03T09:42:28.475Z,19.8
2016-12-03T09:43:28.887Z,19.9
2016-12-03T09:44:29.279Z,19.9
2016-12-03T09:45:29.774Z,19.8
2016-12-03T09:46:30.176Z,19.9
2016-12-03T09:47:30.580Z,19.9
2016-12-03T09:48:30.968Z,19.8
2016-12-03T09:49:31.360Z,19.8
2016-12-03T09:50:31.766Z,19.8
2016-12-03T09:51:32.159Z,19.9
2016-12-03T09:52:32.558Z,20
2016-12-03T09:53:32.950Z,19.9
2016-12-03T09:54:33.336Z,19.9
2016-12-03T09:55:33.729Z,19.9
2016-12-03T09:56:34.121Z,19.8
2016-12-03T09:57:34.508Z,19.9
2016-12-03T09:58:34.914Z,19.8
2016-12-03T09:59:35.317Z,19.7
2016-12-03T10:00:35.720Z,19.8
2016-12-03T10:01:36.124Z,19.9
2016-12-03T10:02:36.516Z,19.9
2016-12-03T10:03:36.900Z,19.9
2016-12-03T10:04:37.294Z,19.7
2016-12-03T10:05:37.685Z,19.8
2016-12-03T10:06:38.084Z,19.8
2016-12-03T10:07:38.487Z,19.8
2016-12-03T10:08:38.888Z,19.8
2016-12-03T10:09:39.282Z,19.8
2016-12-03T10:10:39.970Z,19.8
2016-12-03T10:11:40.362Z,19.8
2016-12-03T10:12:40.755Z,20
2016-12-03T10:13:41.142Z,19.9
2016-12-03T10:14:41.539Z,19.9
2016-12-03T10:15:41.942Z,19.8
2016-12-03T10:16:42.351Z,19.9
2016-12-03T10:17:42.757Z,19.9
2016-12-03T10:18:43.149Z,19.9
2016-12-03T10:19:43.541Z,19.8
2016-12-03T10:20:43.960Z,19.8
2016-12-03T10:21:44.360Z,19.9
2016-12-03T10:22:44.747Z,19.9
2016-12-03T10:23:45.139Z,19.9
2016-12-03T10:24:45.532Z,19.9
2016-12-03T10:25:45.922Z,19.9
2016-12-03T10:26:46.321Z,20
2016-12-03T10:27:46.715Z,19.9
2016-12-03T10:28:47.116Z,19.9
2016-12-03T10:29:47.515Z,20
2016-12-03T10:30:47.902Z,19.9
2016-12-03T10:31:48.284Z,19.9
2016-12-03T10:32:48.673Z,19.8
2016-12-03T10:33:49.061Z,19.7
2016-12-03T10:34:49.460Z,19.8
2016-12-03T10:35:49.862Z,19.9
2016-12-03T10:36:50.262Z,19.8
2016-12-03T10:37:50.664Z,19.9
2016-12-03T10:38:51.057Z,19.8
2016-12-03T10:39:51.448Z,19.8
2016-12-03T10:40:51.841Z,19.9
2016-12-03T10:41:52.236Z,19.8
2016-12-03T10:42:52.634Z,19.8
2016-12-03T10:43:53.040Z,19.9
2016-12-03T10:44:53.443Z,19.9
2016-12-03T10:45:53.843Z,19.9
2016-12-03T10:46:54.229Z,19.9
2016-12-03T10:47:54.622Z,19.8
2016-12-03T10:48:55.010Z,20
2016-12-03T10:49:55.397Z,19.9
2016-12-03T10:50:55.799Z,19.9
2016-12-03T10:51:56.192Z,20
2016-12-03T10:52:56.583Z,19.9
2016-12-03T10:53:56.971Z,20
2016-12-03T10:54:57.369Z,19.9
2016-12-03T10:55:57.796Z,19.9
2016-12-03T10:56:58.193Z,20.1
2016-12-03T10:57:58.591Z,20.1
2016-12-03T10:58:58.981Z,20
2016-12-03T10:59:59.370Z,19.9
2016-12-03T11:00:59.760Z,20
2016-12-03T11:02:00.149Z,20
2016-12-03T11:03:00.562Z,20
2016-12-03T11:04:00.962Z,20
2016-12-03T11:05:01.372Z,20
2016-12-03T11:06:01.776Z,20
2016-12-03T11:07:02.164Z,20.1
2016-12-03T11:08:02.555Z,20.1
2016-12-03T11:09:02.939Z,20.1
2016-12-03T11:10:03.327Z,20.1
2016-12-03T11:11:03.725Z,20.2
2016-12-03T11:12:04.125Z,20.3
2016-12-03T11:13:04.517Z,20.3
2016-12-03T11:14:04.920Z,20.3
2016-12-03T11:15:05.303Z,20.4
2016-12-03T11:16:05.692Z,20.3
2016-12-03T11:17:06.082Z,20.3
2016-12-03T11:18:06.469Z,20.3
2016-12-03T11:19:06.873Z,20.3
2016-12-03T11:20:07.273Z,20.3
2016-12-03T11:21:07.677Z,20.3
2016-12-03T11:22:08.087Z,20.3
2016-12-03T11:23:08.473Z,20.3
2016-12-03T11:24:08.866Z,20.3
2016-12-03T11:25:09.263Z,20.5
2016-12-03T11:26:09.659Z,20.5
2016-12-03T11:27:10.050Z,20.3
2016-12-03T11:28:10.442Z,20.4
2016-12-03T11:29:10.834Z,20.3
2016-12-03T11:30:11.225Z,20.2
2016-12-03T11:31:11.618Z,20.3
2016-12-03T11:32:12.014Z,20.3
2016-12-03T11:33:12.418Z,20.2
2016-12-03T11:34:12.816Z,20.4
2016-12-03T11:35:13.199Z,20.3
2016-12-03T11:36:13.590Z,20.3
2016-12-03T11:37:13.978Z,20.4
2016-12-03T11:38:14.361Z,20.6
2016-12-03T11:39:14.769Z,20.3
2016-12-03T11:40:15.174Z,20.4
2016-12-03T11:41:16.437Z,20.4
2016-12-03T11:42:19.817Z,20.3
2016-12-03T11:43:20.209Z,20.3
2016-12-03T11:44:20.598Z,20.5
2016-12-03T11:45:20.985Z,20.3
2016-12-03T11:46:21.380Z,20.4
2016-12-03T11:47:21.780Z,20.4
2016-12-03T11:48:22.177Z,20.4
2016-12-03T11:49:22.577Z,20.4
2016-12-03T11:50:22.980Z,20.4
2016-12-03T11:51:23.365Z,20.4
2016-12-03T11:52:23.748Z,20.4
2016-12-03T11:53:24.139Z,20.5
2016-12-03T11:54:24.527Z,20.5
2016-12-03T11:55:24.925Z,20.5
2016-12-03T11:56:25.333Z,20.4
2016-12-03T11:57:25.736Z,20.4
2016-12-03T11:58:26.125Z,20.4
2016-12-03T11:59:26.514Z,20.4
2016-12-03T12:00:26.908Z,20.5
2016-12-03T12:01:27.293Z,20.5
2016-12-03T12:02:27.694Z,20.4
2016-12-03T12:03:28.108Z,20.5
2016-12-03T12:04:28.506Z,20.4
2016-12-03T12:05:28.903Z,20.4
2016-12-03T12:06:29.308Z,20.5
2016-12-03T12:07:29.701Z,20.4
2016-12-03T12:08:30.085Z,20.2
2016-12-03T12:09:30.497Z,20.2
2016-12-03T12:10:30.881Z,20.2
2016-12-03T12:11:31.281Z,20.3
2016-12-03T12:12:31.689Z,20.2
2016-12-03T12:13:32.094Z,20.2
2016-12-03T12:14:32.488Z,20.3
2016-12-03T12:15:32.876Z,20.2
2016-12-03T12:16:33.268Z,20.2
2016-12-03T12:17:33.656Z,20.3
2016-12-03T12:18:34.051Z,20.2
2016-12-03T12:19:34.467Z,20.3
2016-12-03T12:20:34.887Z,20.3
2016-12-03T12:21:35.672Z,20.2
2016-12-03T12:22:36.078Z,20.2
2016-12-03T12:23:36.466Z,20.2
2016-12-03T12:24:36.852Z,20.3
2016-12-03T12:25:37.242Z,20.2
2016-12-03T12:26:37.636Z,20.2
2016-12-03T12:27:38.034Z,20.2
2016-12-03T12:28:38.435Z,20.1
2016-12-03T12:29:38.824Z,20.2
2016-12-03T12:30:39.215Z,20.1
2016-12-03T12:31:39.614Z,20.1
2016-12-03T12:32:40.011Z,20.1
2016-12-03T12:33:40.411Z,20.2
2016-12-03T12:34:40.810Z,20.3
2016-12-03T12:35:41.200Z,20.2
2016-12-03T12:36:41.593Z,20.2
2016-12-03T12:37:41.980Z,20.2
2016-12-03T12:38:42.365Z,20.3
2016-12-03T12:39:42.772Z,20.2
2016-12-03T12:40:43.178Z,20.2
2016-12-03T12:41:43.586Z,20.2
2016-12-03T12:42:43.992Z,20.2
2016-12-03T12:43:44.383Z,20.2
2016-12-03T12:44:44.763Z,20.3
2016-12-03T12:45:45.156Z,20.3
2016-12-03T12:46:45.546Z,20.2
2016-12-03T12:47:45.949Z,20.2
2016-12-03T12:48:46.365Z,20.2
2016-12-03T12:49:46.766Z,20.2
2016-12-03T12:50:47.170Z,20.3
2016-12-03T12:51:47.561Z,20.2
2016-12-03T12:52:47.952Z,20.3
2016-12-03T12:53:48.346Z,20.3
2016-12-03T12:54:48.732Z,20.2
2016-12-03T12:55:49.131Z,20.2
2016-12-03T12:56:49.535Z,20.3
2016-12-03T12:57:49.934Z,20.3
2016-12-03T12:58:50.341Z,20.3
2016-12-03T12:59:50.730Z,20.3
2016-12-03T13:00:51.125Z,20.3
2016-12-03T13:01:51.522Z,20.4
2016-12-03T13:02:51.926Z,20.2
2016-12-03T13:03:52.316Z,20.3
2016-12-03T13:04:52.731Z,20.3
2016-12-03T13:05:53.128Z,20.3
2016-12-03T13:06:53.517Z,20.2
2016-12-03T13:07:53.915Z,20.3
2016-12-03T13:08:54.314Z,20.3
2016-12-03T13:09:54.718Z,20.4
2016-12-03T13:10:55.119Z,20.4
2016-12-03T13:11:55.503Z,20.5
2016-12-03T13:12:55.901Z,20.4
2016-12-03T13:13:56.284Z,20.4
2016-12-03T13:14:56.669Z,20.6
2016-12-03T13:15:57.074Z,20.5
2016-12-03T13:16:57.469Z,20.6
2016-12-03T13:17:57.873Z,20.5
2016-12-03T13:18:58.274Z,20.4
2016-12-03T13:19:58.662Z,20.4
2016-12-03T13:20:59.048Z,20.5
2016-12-03T13:21:59.437Z,20.4
2016-12-03T13:22:59.823Z,20.5
2016-12-03T13:24:00.223Z,20.4
2016-12-03T13:25:00.623Z,20.5
2016-12-03T13:26:01.019Z,20.4
2016-12-03T13:27:01.422Z,20.5
2016-12-03T13:28:01.812Z,20.6